< < Back
Terminal Aerodrome Forecast


Current Version              Previous Versions:   1  2  3  4  5  6  7  8  9  

Terminal Aerodrome Forecast

365
FTUS42 KTAE 291203 AAA
TAFTLH
TAF AMD
KTLH 291203Z 2912/3012 06003KT P6SM SCT006 SCT100
      TEMPO 2912/2914 OVC006
     FM291400 18008KT P6SM SCT035
     FM300000 20005KT P6SM SCT250
     FM300800 00000KT 3SM BR BKN006=

Latest METAR

681
SAUS80 KWBC 300300 RRA
MTRTLH
METAR KTLH 300253Z 00000KT 10SM CLR 23/19 A2996 RMK AO2 SLP145 LAST
AUGMENTED OBS T02280189 51014


USA.gov is the U.S. government's official web portal to all federal, state and local government web resources and services.